sensor_id;sensor_type;location;lat;lon;timestamp;P1;durP1;ratioP1;P2;durP2;ratioP2
52434;SDS011;38354;52.892;6.148;2024-03-25T04:00:48;21.00;;;3.08;;
52434;SDS011;38354;52.892;6.148;2024-03-25T04:03:15;13.38;;;2.50;;
52434;SDS011;38354;52.892;6.148;2024-03-25T04:05:40;15.68;;;2.65;;
52434;SDS011;38354;52.892;6.148;2024-03-25T04:08:06;18.75;;;3.05;;
52434;SDS011;38354;52.892;6.148;2024-03-25T04:10:33;13.90;;;3.20;;
52434;SDS011;38354;52.892;6.148;2024-03-25T04:12:59;16.45;;;2.80;;
52434;SDS011;38354;52.892;6.148;2024-03-25T04:15:25;17.30;;;2.80;;
52434;SDS011;38354;52.892;6.148;2024-03-25T04:17:51;21.70;;;3.40;;
52434;SDS011;38354;52.892;6.148;2024-03-25T04:20:17;14.75;;;2.90;;
52434;SDS011;38354;52.892;6.148;2024-03-25T04:22:44;24.40;;;3.25;;
52434;SDS011;38354;52.892;6.148;2024-03-25T04:25:11;25.25;;;4.05;;
52434;SDS011;38354;52.892;6.148;2024-03-25T04:27:40;20.75;;;2.92;;
52434;SDS011;38354;52.892;6.148;2024-03-25T04:30:06;19.05;;;2.72;;
52434;SDS011;38354;52.892;6.148;2024-03-25T04:32:33;16.90;;;3.33;;
52434;SDS011;38354;52.892;6.148;2024-03-25T04:34:59;17.08;;;2.92;;
52434;SDS011;38354;52.892;6.148;2024-03-25T04:37:25;15.65;;;2.97;;
52434;SDS011;38354;52.892;6.148;2024-03-25T04:39:51;22.42;;;3.40;;
52434;SDS011;38354;52.892;6.148;2024-03-25T04:42:17;20.95;;;3.55;;
52434;SDS011;38354;52.892;6.148;2024-03-25T04:44:42;17.00;;;3.10;;
52434;SDS011;38354;52.892;6.148;2024-03-25T04:47:08;20.67;;;3.15;;
52434;SDS011;38354;52.892;6.148;2024-03-25T04:49:34;17.60;;;3.10;;
52434;SDS011;38354;52.892;6.148;2024-03-25T04:51:59;11.98;;;2.30;;
52434;SDS011;38354;52.892;6.148;2024-03-25T04:54:25;13.38;;;2.45;;
52434;SDS011;38354;52.892;6.148;2024-03-25T04:56:51;14.98;;;2.85;;
52434;SDS011;38354;52.892;6.148;2024-03-25T04:59:16;21.20;;;3.05;;
52434;SDS011;38354;52.892;6.148;2024-03-25T05:01:42;13.25;;;2.60;;
52434;SDS011;38354;52.892;6.148;2024-03-25T05:04:07;20.08;;;3.50;;
52434;SDS011;38354;52.892;6.148;2024-03-25T05:06:34;15.50;;;2.95;;
52434;SDS011;38354;52.892;6.148;2024-03-25T05:09:00;16.92;;;2.47;;
52434;SDS011;38354;52.892;6.148;2024-03-25T05:11:26;20.55;;;2.85;;
52434;SDS011;38354;52.892;6.148;2024-03-25T05:13:52;18.27;;;3.13;;
52434;SDS011;38354;52.892;6.148;2024-03-25T05:16:18;16.77;;;3.00;;
52434;SDS011;38354;52.892;6.148;2024-03-25T05:18:43;17.58;;;2.50;;
52434;SDS011;38354;52.892;6.148;2024-03-25T05:21:09;15.60;;;3.13;;
52434;SDS011;38354;52.892;6.148;2024-03-25T05:23:35;10.45;;;2.08;;
52434;SDS011;38354;52.892;6.148;2024-03-25T05:26:01;15.13;;;2.28;;
52434;SDS011;38354;52.892;6.148;2024-03-25T05:28:26;21.88;;;3.28;;
52434;SDS011;38354;52.892;6.148;2024-03-25T05:30:52;13.75;;;2.58;;
52434;SDS011;38354;52.892;6.148;2024-03-25T05:33:18;16.55;;;2.35;;
52434;SDS011;38354;52.892;6.148;2024-03-25T05:35:43;10.57;;;2.20;;
52434;SDS011;38354;52.892;6.148;2024-03-25T05:38:09;14.27;;;2.50;;
52434;SDS011;38354;52.892;6.148;2024-03-25T05:40:34;17.67;;;2.72;;
52434;SDS011;38354;52.892;6.148;2024-03-25T05:43:00;12.63;;;2.28;;
52434;SDS011;38354;52.892;6.148;2024-03-25T05:45:26;15.38;;;2.28;;
52434;SDS011;38354;52.892;6.148;2024-03-25T05:47:51;10.50;;;2.75;;
52434;SDS011;38354;52.892;6.148;2024-03-25T05:50:17;17.38;;;2.75;;
52434;SDS011;38354;52.892;6.148;2024-03-25T05:52:43;11.85;;;2.30;;
52434;SDS011;38354;52.892;6.148;2024-03-25T05:55:09;15.60;;;2.92;;
52434;SDS011;38354;52.892;6.148;2024-03-25T05:57:37;11.27;;;2.33;;
52434;SDS011;38354;52.892;6.148;2024-03-25T06:00:03;13.10;;;2.45;;
52434;SDS011;38354;52.892;6.148;2024-03-25T06:02:29;14.13;;;2.95;;
52434;SDS011;38354;52.892;6.148;2024-03-25T06:04:57;11.20;;;2.42;;
52434;SDS011;38354;52.892;6.148;2024-03-25T06:07:23;16.95;;;3.58;;
52434;SDS011;38354;52.892;6.148;2024-03-25T06:09:49;15.95;;;2.30;;
52434;SDS011;38354;52.892;6.148;2024-03-25T06:12:15;12.90;;;3.03;;
52434;SDS011;38354;52.892;6.148;2024-03-25T06:14:40;14.77;;;3.65;;
52434;SDS011;38354;52.892;6.148;2024-03-25T06:17:06;15.63;;;2.88;;
52434;SDS011;38354;52.892;6.148;2024-03-25T06:19:31;15.63;;;2.92;;
52434;SDS011;38354;52.892;6.148;2024-03-25T06:21:57;12.90;;;2.45;;
52434;SDS011;38354;52.892;6.148;2024-03-25T06:24:23;11.25;;;2.13;;
52434;SDS011;38354;52.892;6.148;2024-03-25T06:26:49;12.13;;;2.70;;
52434;SDS011;38354;52.892;6.148;2024-03-25T06:29:14;11.70;;;2.10;;
52434;SDS011;38354;52.892;6.148;2024-03-25T06:31:40;12.40;;;2.00;;
52434;SDS011;38354;52.892;6.148;2024-03-25T06:34:24;13.30;;;2.40;;
52434;SDS011;38354;52.892;6.148;2024-03-25T06:36:50;11.27;;;2.38;;
52434;SDS011;38354;52.892;6.148;2024-03-25T06:39:15;12.32;;;2.30;;
52434;SDS011;38354;52.892;6.148;2024-03-25T06:41:41;16.13;;;1.90;;
52434;SDS011;38354;52.892;6.148;2024-03-25T06:44:07;9.02;;;1.55;;
52434;SDS011;38354;52.892;6.148;2024-03-25T06:46:33;11.10;;;1.85;;
52434;SDS011;38354;52.892;6.148;2024-03-25T06:48:59;15.93;;;1.92;;
52434;SDS011;38354;52.892;6.148;2024-03-25T06:51:24;8.02;;;1.88;;
52434;SDS011;38354;52.892;6.148;2024-03-25T06:53:50;12.48;;;1.80;;
52434;SDS011;38354;52.892;6.148;2024-03-25T06:56:16;12.10;;;2.72;;
52434;SDS011;38354;52.892;6.148;2024-03-25T06:58:42;12.75;;;1.90;;
52434;SDS011;38354;52.892;6.148;2024-03-25T07:01:08;12.85;;;2.10;;
52434;SDS011;38354;52.892;6.148;2024-03-25T07:03:37;14.30;;;2.00;;
52434;SDS011;38354;52.892;6.148;2024-03-25T07:06:03;13.93;;;2.33;;
52434;SDS011;38354;52.892;6.148;2024-03-25T07:08:30;14.50;;;2.10;;
52434;SDS011;38354;52.892;6.148;2024-03-25T07:10:56;12.90;;;1.95;;
52434;SDS011;38354;52.892;6.148;2024-03-25T07:13:22;13.23;;;1.90;;
52434;SDS011;38354;52.892;6.148;2024-03-25T07:15:48;9.90;;;1.70;;
52434;SDS011;38354;52.892;6.148;2024-03-25T07:20:52;14.90;;;2.13;;
52434;SDS011;38354;52.892;6.148;2024-03-25T07:23:18;10.73;;;1.75;;
52434;SDS011;38354;52.892;6.148;2024-03-25T07:25:44;11.35;;;2.42;;
52434;SDS011;38354;52.892;6.148;2024-03-25T07:28:09;10.20;;;1.65;;
52434;SDS011;38354;52.892;6.148;2024-03-25T07:30:35;10.70;;;1.60;;
52434;SDS011;38354;52.892;6.148;2024-03-25T07:33:00;13.02;;;2.22;;
52434;SDS011;38354;52.892;6.148;2024-03-25T07:35:26;11.13;;;1.60;;
52434;SDS011;38354;52.892;6.148;2024-03-25T07:37:52;12.23;;;2.47;;
52434;SDS011;38354;52.892;6.148;2024-03-25T07:40:18;10.65;;;2.10;;
52434;SDS011;38354;52.892;6.148;2024-03-25T07:42:44;16.55;;;2.22;;
52434;SDS011;38354;52.892;6.148;2024-03-25T07:45:10;14.63;;;3.47;;
52434;SDS011;38354;52.892;6.148;2024-03-25T07:47:35;18.05;;;3.25;;
52434;SDS011;38354;52.892;6.148;2024-03-25T07:50:02;12.68;;;2.00;;
52434;SDS011;38354;52.892;6.148;2024-03-25T07:52:28;9.35;;;1.75;;
52434;SDS011;38354;52.892;6.148;2024-03-25T07:54:54;12.50;;;2.10;;
52434;SDS011;38354;52.892;6.148;2024-03-25T07:57:20;14.68;;;2.20;;
52434;SDS011;38354;52.892;6.148;2024-03-25T07:59:46;14.32;;;2.00;;
52434;SDS011;38354;52.892;6.148;2024-03-25T08:02:12;12.82;;;1.67;;
52434;SDS011;38354;52.892;6.148;2024-03-25T08:04:37;10.20;;;1.90;;
52434;SDS011;38354;52.892;6.148;2024-03-25T08:07:03;11.90;;;2.03;;
52434;SDS011;38354;52.892;6.148;2024-03-25T08:09:29;14.80;;;2.10;;
52434;SDS011;38354;52.892;6.148;2024-03-25T08:11:55;17.48;;;2.72;;
52434;SDS011;38354;52.892;6.148;2024-03-25T08:14:21;14.55;;;2.75;;
52434;SDS011;38354;52.892;6.148;2024-03-25T08:16:47;13.10;;;2.72;;
52434;SDS011;38354;52.892;6.148;2024-03-25T08:19:13;16.38;;;2.67;;
52434;SDS011;38354;52.892;6.148;2024-03-25T08:21:38;11.70;;;3.03;;
52434;SDS011;38354;52.892;6.148;2024-03-25T08:24:04;15.05;;;2.97;;
52434;SDS011;38354;52.892;6.148;2024-03-25T08:26:31;21.83;;;2.50;;
52434;SDS011;38354;52.892;6.148;2024-03-25T08:28:57;22.10;;;2.53;;
52434;SDS011;38354;52.892;6.148;2024-03-25T08:31:22;16.08;;;2.75;;
52434;SDS011;38354;52.892;6.148;2024-03-25T08:33:48;18.65;;;3.53;;
52434;SDS011;38354;52.892;6.148;2024-03-25T08:36:14;15.73;;;2.13;;
52434;SDS011;38354;52.892;6.148;2024-03-25T08:38:40;18.90;;;2.85;;
52434;SDS011;38354;52.892;6.148;2024-03-25T08:41:05;12.60;;;2.22;;
52434;SDS011;38354;52.892;6.148;2024-03-25T08:43:31;14.95;;;2.97;;
52434;SDS011;38354;52.892;6.148;2024-03-25T08:45:56;21.92;;;2.88;;
52434;SDS011;38354;52.892;6.148;2024-03-25T08:48:22;12.73;;;2.80;;
52434;SDS011;38354;52.892;6.148;2024-03-25T08:50:48;16.65;;;3.53;;
52434;SDS011;38354;52.892;6.148;2024-03-25T08:53:14;15.55;;;2.83;;
52434;SDS011;38354;52.892;6.148;2024-03-25T08:55:48;11.02;;;2.22;;
52434;SDS011;38354;52.892;6.148;2024-03-25T08:58:14;16.00;;;2.35;;
52434;SDS011;38354;52.892;6.148;2024-03-25T09:00:40;15.45;;;1.92;;
52434;SDS011;38354;52.892;6.148;2024-03-25T09:03:09;14.77;;;2.17;;
52434;SDS011;38354;52.892;6.148;2024-03-25T09:05:36;18.45;;;2.92;;
52434;SDS011;38354;52.892;6.148;2024-03-25T09:08:04;11.95;;;2.20;;
52434;SDS011;38354;52.892;6.148;2024-03-25T09:10:31;16.45;;;2.70;;
52434;SDS011;38354;52.892;6.148;2024-03-25T09:13:15;11.77;;;2.20;;
52434;SDS011;38354;52.892;6.148;2024-03-25T09:15:40;12.15;;;2.08;;
52434;SDS011;38354;52.892;6.148;2024-03-25T09:18:06;9.98;;;2.00;;
52434;SDS011;38354;52.892;6.148;2024-03-25T09:20:32;17.55;;;2.60;;
52434;SDS011;38354;52.892;6.148;2024-03-25T09:23:00;19.52;;;2.47;;
52434;SDS011;38354;52.892;6.148;2024-03-25T09:25:25;9.27;;;2.67;;
52434;SDS011;38354;52.892;6.148;2024-03-25T09:27:51;13.75;;;1.88;;
52434;SDS011;38354;52.892;6.148;2024-03-25T09:30:17;8.30;;;1.63;;
52434;SDS011;38354;52.892;6.148;2024-03-25T09:32:44;11.90;;;1.50;;
52434;SDS011;38354;52.892;6.148;2024-03-25T09:35:10;11.60;;;2.33;;
52434;SDS011;38354;52.892;6.148;2024-03-25T09:37:37;8.68;;;1.70;;
52434;SDS011;38354;52.892;6.148;2024-03-25T09:40:03;9.63;;;2.08;;
52434;SDS011;38354;52.892;6.148;2024-03-25T09:42:37;10.75;;;1.60;;
52434;SDS011;38354;52.892;6.148;2024-03-25T09:45:10;12.38;;;1.60;;
52434;SDS011;38354;52.892;6.148;2024-03-25T09:47:36;13.93;;;2.20;;
52434;SDS011;38354;52.892;6.148;2024-03-25T09:50:04;9.77;;;2.08;;
52434;SDS011;38354;52.892;6.148;2024-03-25T09:52:33;11.38;;;2.08;;
52434;SDS011;38354;52.892;6.148;2024-03-25T09:54:59;14.95;;;2.00;;
52434;SDS011;38354;52.892;6.148;2024-03-25T09:57:25;11.93;;;1.48;;
52434;SDS011;38354;52.892;6.148;2024-03-25T09:59:51;10.18;;;2.30;;
52434;SDS011;38354;52.892;6.148;2024-03-25T10:02:17;12.07;;;1.70;;
52434;SDS011;38354;52.892;6.148;2024-03-25T10:04:47;9.35;;;1.98;;
52434;SDS011;38354;52.892;6.148;2024-03-25T10:07:31;11.50;;;1.80;;
52434;SDS011;38354;52.892;6.148;2024-03-25T10:12:24;9.77;;;1.40;;
52434;SDS011;38354;52.892;6.148;2024-03-25T10:14:50;10.23;;;1.70;;
52434;SDS011;38354;52.892;6.148;2024-03-25T10:17:16;18.20;;;2.13;;
52434;SDS011;38354;52.892;6.148;2024-03-25T10:19:41;14.90;;;3.50;;
52434;SDS011;38354;52.892;6.148;2024-03-25T10:22:08;10.68;;;1.75;;
52434;SDS011;38354;52.892;6.148;2024-03-25T10:24:38;13.35;;;2.40;;
52434;SDS011;38354;52.892;6.148;2024-03-25T10:27:17;13.73;;;2.33;;
52434;SDS011;38354;52.892;6.148;2024-03-25T10:29:48;11.23;;;1.75;;
52434;SDS011;38354;52.892;6.148;2024-03-25T10:32:17;8.57;;;1.63;;
52434;SDS011;38354;52.892;6.148;2024-03-25T10:34:43;9.88;;;2.03;;
52434;SDS011;38354;52.892;6.148;2024-03-25T10:37:09;8.02;;;1.50;;
52434;SDS011;38354;52.892;6.148;2024-03-25T10:39:39;15.73;;;2.00;;
52434;SDS011;38354;52.892;6.148;2024-03-25T10:42:08;9.52;;;1.60;;
52434;SDS011;38354;52.892;6.148;2024-03-25T10:44:38;10.05;;;1.80;;
52434;SDS011;38354;52.892;6.148;2024-03-25T10:47:04;13.13;;;2.92;;
52434;SDS011;38354;52.892;6.148;2024-03-25T10:49:46;12.00;;;1.77;;
52434;SDS011;38354;52.892;6.148;2024-03-25T10:52:15;8.60;;;1.35;;
52434;SDS011;38354;52.892;6.148;2024-03-25T10:54:42;11.70;;;1.58;;
52434;SDS011;38354;52.892;6.148;2024-03-25T10:57:11;13.98;;;2.38;;
52434;SDS011;38354;52.892;6.148;2024-03-25T10:59:38;12.90;;;2.20;;
52434;SDS011;38354;52.892;6.148;2024-03-25T11:02:10;7.53;;;2.10;;
52434;SDS011;38354;52.892;6.148;2024-03-25T11:04:37;8.23;;;1.67;;
52434;SDS011;38354;52.892;6.148;2024-03-25T11:07:10;11.10;;;1.80;;
52434;SDS011;38354;52.892;6.148;2024-03-25T11:09:40;9.05;;;1.88;;
52434;SDS011;38354;52.892;6.148;2024-03-25T11:12:06;5.43;;;1.25;;
52434;SDS011;38354;52.892;6.148;2024-03-25T11:14:36;6.45;;;1.60;;
52434;SDS011;38354;52.892;6.148;2024-03-25T11:17:02;14.98;;;2.53;;
52434;SDS011;38354;52.892;6.148;2024-03-25T11:19:39;11.23;;;2.20;;
52434;SDS011;38354;52.892;6.148;2024-03-25T11:22:08;7.95;;;1.52;;
52434;SDS011;38354;52.892;6.148;2024-03-25T11:24:37;10.90;;;2.20;;
52434;SDS011;38354;52.892;6.148;2024-03-25T11:27:08;7.07;;;1.55;;
52434;SDS011;38354;52.892;6.148;2024-03-25T11:29:34;14.73;;;2.25;;
52434;SDS011;38354;52.892;6.148;2024-03-25T11:32:03;10.18;;;1.63;;
52434;SDS011;38354;52.892;6.148;2024-03-25T11:34:30;7.97;;;1.65;;
52434;SDS011;38354;52.892;6.148;2024-03-25T11:36:56;9.77;;;2.63;;
52434;SDS011;38354;52.892;6.148;2024-03-25T11:39:23;10.30;;;1.75;;
52434;SDS011;38354;52.892;6.148;2024-03-25T11:41:53;6.82;;;1.33;;
52434;SDS011;38354;52.892;6.148;2024-03-25T11:44:19;8.27;;;1.60;;
52434;SDS011;38354;52.892;6.148;2024-03-25T11:46:47;8.43;;;1.50;;
52434;SDS011;38354;52.892;6.148;2024-03-25T11:49:14;7.10;;;1.70;;
52434;SDS011;38354;52.892;6.148;2024-03-25T11:51:43;8.85;;;1.70;;
52434;SDS011;38354;52.892;6.148;2024-03-25T11:54:11;10.68;;;2.10;;
52434;SDS011;38354;52.892;6.148;2024-03-25T11:56:37;8.18;;;1.83;;
52434;SDS011;38354;52.892;6.148;2024-03-25T11:59:03;5.13;;;1.20;;
52434;SDS011;38354;52.892;6.148;2024-03-25T12:01:29;7.45;;;1.13;;
52434;SDS011;38354;52.892;6.148;2024-03-25T12:03:55;6.35;;;1.40;;
52434;SDS011;38354;52.892;6.148;2024-03-25T12:06:21;6.65;;;1.48;;
52434;SDS011;38354;52.892;6.148;2024-03-25T12:08:47;9.48;;;2.05;;
52434;SDS011;38354;52.892;6.148;2024-03-25T12:11:48;8.05;;;1.88;;
52434;SDS011;38354;52.892;6.148;2024-03-25T12:14:14;3.80;;;1.17;;
52434;SDS011;38354;52.892;6.148;2024-03-25T12:16:41;8.82;;;1.88;;
52434;SDS011;38354;52.892;6.148;2024-03-25T12:19:06;8.77;;;2.22;;
52434;SDS011;38354;52.892;6.148;2024-03-25T12:21:32;8.07;;;2.33;;
52434;SDS011;38354;52.892;6.148;2024-03-25T12:23:59;9.32;;;1.83;;
52434;SDS011;38354;52.892;6.148;2024-03-25T12:26:25;6.20;;;1.73;;
52434;SDS011;38354;52.892;6.148;2024-03-25T12:28:51;9.57;;;2.40;;
52434;SDS011;38354;52.892;6.148;2024-03-25T12:31:17;9.10;;;1.48;;
52434;SDS011;38354;52.892;6.148;2024-03-25T12:33:44;7.93;;;1.90;;
52434;SDS011;38354;52.892;6.148;2024-03-25T12:36:12;7.38;;;2.00;;
52434;SDS011;38354;52.892;6.148;2024-03-25T12:38:38;8.38;;;1.40;;
52434;SDS011;38354;52.892;6.148;2024-03-25T12:41:05;9.57;;;1.58;;
52434;SDS011;38354;52.892;6.148;2024-03-25T12:43:34;6.60;;;1.63;;
52434;SDS011;38354;52.892;6.148;2024-03-25T12:46:01;9.75;;;1.75;;
52434;SDS011;38354;52.892;6.148;2024-03-25T12:48:28;9.57;;;1.98;;
52434;SDS011;38354;52.892;6.148;2024-03-25T12:50:54;9.38;;;2.00;;
52434;SDS011;38354;52.892;6.148;2024-03-25T12:53:20;6.45;;;1.50;;
52434;SDS011;38354;52.892;6.148;2024-03-25T12:55:46;7.03;;;1.80;;
52434;SDS011;38354;52.892;6.148;2024-03-25T12:58:12;6.40;;;1.38;;
52434;SDS011;38354;52.892;6.148;2024-03-25T13:00:38;9.77;;;1.67;;
52434;SDS011;38354;52.892;6.148;2024-03-25T13:03:04;7.10;;;1.58;;
52434;SDS011;38354;52.892;6.148;2024-03-25T13:05:31;5.15;;;1.05;;
52434;SDS011;38354;52.892;6.148;2024-03-25T13:07:57;8.05;;;1.60;;
52434;SDS011;38354;52.892;6.148;2024-03-25T13:10:23;5.18;;;1.50;;
52434;SDS011;38354;52.892;6.148;2024-03-25T13:12:49;5.70;;;1.60;;
52434;SDS011;38354;52.892;6.148;2024-03-25T13:15:14;5.25;;;1.40;;
52434;SDS011;38354;52.892;6.148;2024-03-25T13:17:40;6.00;;;1.70;;
52434;SDS011;38354;52.892;6.148;2024-03-25T13:20:06;9.00;;;1.45;;
52434;SDS011;38354;52.892;6.148;2024-03-25T13:22:33;7.05;;;1.38;;
52434;SDS011;38354;52.892;6.148;2024-03-25T13:24:59;8.32;;;1.35;;
52434;SDS011;38354;52.892;6.148;2024-03-25T13:27:25;9.65;;;1.60;;
52434;SDS011;38354;52.892;6.148;2024-03-25T13:29:51;6.53;;;1.38;;
52434;SDS011;38354;52.892;6.148;2024-03-25T13:32:20;8.20;;;1.70;;
52434;SDS011;38354;52.892;6.148;2024-03-25T13:34:45;7.20;;;1.90;;
52434;SDS011;38354;52.892;6.148;2024-03-25T13:37:11;7.65;;;1.60;;
52434;SDS011;38354;52.892;6.148;2024-03-25T13:39:38;12.82;;;2.13;;
52434;SDS011;38354;52.892;6.148;2024-03-25T13:42:04;8.55;;;2.40;;
52434;SDS011;38354;52.892;6.148;2024-03-25T13:44:30;13.27;;;1.83;;
52434;SDS011;38354;52.892;6.148;2024-03-25T13:46:56;7.05;;;1.90;;
52434;SDS011;38354;52.892;6.148;2024-03-25T13:49:21;10.57;;;2.13;;
52434;SDS011;38354;52.892;6.148;2024-03-25T13:51:50;6.20;;;1.58;;
52434;SDS011;38354;52.892;6.148;2024-03-25T13:54:21;6.85;;;1.63;;
52434;SDS011;38354;52.892;6.148;2024-03-25T13:56:46;7.82;;;1.60;;
52434;SDS011;38354;52.892;6.148;2024-03-25T13:59:13;8.38;;;2.08;;
52434;SDS011;38354;52.892;6.148;2024-03-25T14:01:38;9.77;;;2.85;;
52434;SDS011;38354;52.892;6.148;2024-03-25T14:04:05;11.13;;;2.20;;
52434;SDS011;38354;52.892;6.148;2024-03-25T14:06:31;7.30;;;1.75;;
52434;SDS011;38354;52.892;6.148;2024-03-25T14:08:58;9.13;;;2.05;;
52434;SDS011;38354;52.892;6.148;2024-03-25T14:11:29;9.52;;;1.73;;
52434;SDS011;38354;52.892;6.148;2024-03-25T14:13:55;6.15;;;1.45;;
52434;SDS011;38354;52.892;6.148;2024-03-25T14:16:21;7.47;;;1.70;;
52434;SDS011;38354;52.892;6.148;2024-03-25T14:18:47;4.35;;;1.48;;
52434;SDS011;38354;52.892;6.148;2024-03-25T14:21:12;5.72;;;1.45;;
52434;SDS011;38354;52.892;6.148;2024-03-25T14:23:38;9.55;;;2.15;;
52434;SDS011;38354;52.892;6.148;2024-03-25T14:26:08;9.55;;;1.75;;
52434;SDS011;38354;52.892;6.148;2024-03-25T14:28:34;5.90;;;1.75;;
52434;SDS011;38354;52.892;6.148;2024-03-25T14:31:02;6.38;;;1.85;;
52434;SDS011;38354;52.892;6.148;2024-03-25T14:33:28;7.95;;;1.48;;
52434;SDS011;38354;52.892;6.148;2024-03-25T14:35:54;9.18;;;1.63;;
52434;SDS011;38354;52.892;6.148;2024-03-25T14:38:19;5.18;;;1.40;;
52434;SDS011;38354;52.892;6.148;2024-03-25T14:40:46;11.68;;;1.90;;
52434;SDS011;38354;52.892;6.148;2024-03-25T14:43:12;9.00;;;2.13;;
52434;SDS011;38354;52.892;6.148;2024-03-25T14:45:38;8.73;;;1.90;;
52434;SDS011;38354;52.892;6.148;2024-03-25T14:48:04;11.70;;;2.35;;
52434;SDS011;38354;52.892;6.148;2024-03-25T14:50:29;9.20;;;1.90;;
52434;SDS011;38354;52.892;6.148;2024-03-25T14:52:55;9.55;;;1.75;;
52434;SDS011;38354;52.892;6.148;2024-03-25T14:55:21;9.13;;;1.83;;
52434;SDS011;38354;52.892;6.148;2024-03-25T14:57:46;5.57;;;1.50;;
52434;SDS011;38354;52.892;6.148;2024-03-25T15:00:14;6.85;;;1.30;;
52434;SDS011;38354;52.892;6.148;2024-03-25T15:02:39;7.82;;;1.50;;
52434;SDS011;38354;52.892;6.148;2024-03-25T15:05:05;5.82;;;1.20;;
52434;SDS011;38354;52.892;6.148;2024-03-25T15:07:31;7.32;;;1.38;;
52434;SDS011;38354;52.892;6.148;2024-03-25T15:09:57;4.82;;;1.15;;
52434;SDS011;38354;52.892;6.148;2024-03-25T15:12:22;4.40;;;1.38;;
52434;SDS011;38354;52.892;6.148;2024-03-25T15:14:51;5.72;;;1.20;;
52434;SDS011;38354;52.892;6.148;2024-03-25T15:17:17;5.85;;;1.45;;
52434;SDS011;38354;52.892;6.148;2024-03-25T15:19:42;3.83;;;0.88;;
52434;SDS011;38354;52.892;6.148;2024-03-25T15:22:08;3.58;;;1.02;;
52434;SDS011;38354;52.892;6.148;2024-03-25T15:24:34;4.93;;;1.15;;
52434;SDS011;38354;52.892;6.148;2024-03-25T15:26:59;5.28;;;1.00;;
52434;SDS011;38354;52.892;6.148;2024-03-25T15:29:25;5.07;;;1.02;;
52434;SDS011;38354;52.892;6.148;2024-03-25T15:31:51;4.90;;;1.05;;
52434;SDS011;38354;52.892;6.148;2024-03-25T15:34:16;3.38;;;1.10;;
52434;SDS011;38354;52.892;6.148;2024-03-25T15:36:42;6.78;;;1.38;;
52434;SDS011;38354;52.892;6.148;2024-03-25T15:39:07;3.83;;;1.25;;
52434;SDS011;38354;52.892;6.148;2024-03-25T15:41:33;4.00;;;1.27;;
52434;SDS011;38354;52.892;6.148;2024-03-25T15:43:59;4.90;;;1.27;;
52434;SDS011;38354;52.892;6.148;2024-03-25T15:46:24;4.97;;;1.15;;
52434;SDS011;38354;52.892;6.148;2024-03-25T15:48:50;4.15;;;1.13;;
52434;SDS011;38354;52.892;6.148;2024-03-25T15:51:16;4.15;;;1.23;;
52434;SDS011;38354;52.892;6.148;2024-03-25T15:53:42;3.03;;;0.60;;
52434;SDS011;38354;52.892;6.148;2024-03-25T15:56:08;5.47;;;0.95;;
52434;SDS011;38354;52.892;6.148;2024-03-25T15:58:34;3.78;;;1.10;;
52434;SDS011;38354;52.892;6.148;2024-03-25T16:01:00;2.67;;;0.93;;
52434;SDS011;38354;52.892;6.148;2024-03-25T16:03:26;4.80;;;1.20;;
52434;SDS011;38354;52.892;6.148;2024-03-25T16:05:52;3.10;;;0.95;;
52434;SDS011;38354;52.892;6.148;2024-03-25T16:08:18;5.25;;;1.80;;
52434;SDS011;38354;52.892;6.148;2024-03-25T16:10:43;3.60;;;0.75;;
52434;SDS011;38354;52.892;6.148;2024-03-25T16:13:09;4.78;;;0.80;;
52434;SDS011;38354;52.892;6.148;2024-03-25T16:15:35;5.68;;;1.25;;
52434;SDS011;38354;52.892;6.148;2024-03-25T16:18:00;3.60;;;1.15;;
52434;SDS011;38354;52.892;6.148;2024-03-25T16:20:29;3.78;;;0.93;;
52434;SDS011;38354;52.892;6.148;2024-03-25T16:22:55;2.30;;;0.75;;
52434;SDS011;38354;52.892;6.148;2024-03-25T16:25:21;14.10;;;1.60;;
52434;SDS011;38354;52.892;6.148;2024-03-25T16:27:49;3.25;;;0.90;;
52434;SDS011;38354;52.892;6.148;2024-03-25T16:30:16;4.95;;;0.80;;
52434;SDS011;38354;52.892;6.148;2024-03-25T16:32:43;2.60;;;0.98;;
52434;SDS011;38354;52.892;6.148;2024-03-25T16:35:09;2.63;;;0.80;;
52434;SDS011;38354;52.892;6.148;2024-03-25T16:37:35;3.83;;;1.00;;
52434;SDS011;38354;52.892;6.148;2024-03-25T16:40:01;5.20;;;1.40;;
52434;SDS011;38354;52.892;6.148;2024-03-25T16:42:28;2.95;;;1.02;;
52434;SDS011;38354;52.892;6.148;2024-03-25T16:44:54;4.45;;;1.10;;
52434;SDS011;38354;52.892;6.148;2024-03-25T16:47:19;4.93;;;1.15;;
52434;SDS011;38354;52.892;6.148;2024-03-25T16:49:45;6.05;;;1.15;;
52434;SDS011;38354;52.892;6.148;2024-03-25T16:52:11;4.35;;;0.90;;
52434;SDS011;38354;52.892;6.148;2024-03-25T16:54:36;5.57;;;0.90;;
52434;SDS011;38354;52.892;6.148;2024-03-25T16:57:03;4.97;;;1.23;;
52434;SDS011;38354;52.892;6.148;2024-03-25T16:59:28;3.67;;;0.90;;
52434;SDS011;38354;52.892;6.148;2024-03-25T17:01:54;2.63;;;0.70;;
52434;SDS011;38354;52.892;6.148;2024-03-25T17:04:20;3.53;;;0.80;;
52434;SDS011;38354;52.892;6.148;2024-03-25T17:06:46;5.45;;;0.85;;
52434;SDS011;38354;52.892;6.148;2024-03-25T17:09:12;3.75;;;1.05;;
52434;SDS011;38354;52.892;6.148;2024-03-25T17:11:39;3.35;;;1.00;;
52434;SDS011;38354;52.892;6.148;2024-03-25T17:14:04;3.30;;;0.90;;
52434;SDS011;38354;52.892;6.148;2024-03-25T17:16:31;5.13;;;0.90;;
52434;SDS011;38354;52.892;6.148;2024-03-25T17:18:57;5.00;;;1.10;;
52434;SDS011;38354;52.892;6.148;2024-03-25T17:21:23;3.97;;;1.27;;
52434;SDS011;38354;52.892;6.148;2024-03-25T17:23:49;7.25;;;1.40;;
52434;SDS011;38354;52.892;6.148;2024-03-25T17:26:15;5.88;;;1.20;;
52434;SDS011;38354;52.892;6.148;2024-03-25T17:28:41;6.40;;;0.90;;
52434;SDS011;38354;52.892;6.148;2024-03-25T17:31:07;3.45;;;0.95;;
52434;SDS011;38354;52.892;6.148;2024-03-25T17:33:41;6.85;;;1.83;;
52434;SDS011;38354;52.892;6.148;2024-03-25T17:36:07;4.45;;;1.20;;
52434;SDS011;38354;52.892;6.148;2024-03-25T17:38:33;9.05;;;1.27;;
52434;SDS011;38354;52.892;6.148;2024-03-25T17:40:59;7.07;;;1.20;;
52434;SDS011;38354;52.892;6.148;2024-03-25T17:43:26;4.18;;;1.20;;
52434;SDS011;38354;52.892;6.148;2024-03-25T17:45:51;7.93;;;1.20;;
52434;SDS011;38354;52.892;6.148;2024-03-25T17:48:17;6.82;;;1.00;;
52434;SDS011;38354;52.892;6.148;2024-03-25T17:50:43;10.77;;;1.58;;
52434;SDS011;38354;52.892;6.148;2024-03-25T17:53:09;11.20;;;2.35;;
52434;SDS011;38354;52.892;6.148;2024-03-25T17:55:35;7.28;;;1.20;;
52434;SDS011;38354;52.892;6.148;2024-03-25T17:58:00;5.80;;;1.83;;
52434;SDS011;38354;52.892;6.148;2024-03-25T18:00:27;5.53;;;1.58;;
52434;SDS011;38354;52.892;6.148;2024-03-25T18:02:53;7.28;;;2.22;;
52434;SDS011;38354;52.892;6.148;2024-03-25T18:05:19;7.28;;;1.73;;
52434;SDS011;38354;52.892;6.148;2024-03-25T18:07:45;5.55;;;1.60;;
52434;SDS011;38354;52.892;6.148;2024-03-25T18:10:12;7.03;;;1.60;;
52434;SDS011;38354;52.892;6.148;2024-03-25T18:12:41;5.07;;;1.40;;
52434;SDS011;38354;52.892;6.148;2024-03-25T18:15:07;5.50;;;1.70;;
52434;SDS011;38354;52.892;6.148;2024-03-25T18:17:33;4.50;;;1.42;;
52434;SDS011;38354;52.892;6.148;2024-03-25T18:19:59;9.48;;;1.33;;
52434;SDS011;38354;52.892;6.148;2024-03-25T18:22:25;4.75;;;1.55;;
52434;SDS011;38354;52.892;6.148;2024-03-25T18:24:50;7.70;;;1.75;;
52434;SDS011;38354;52.892;6.148;2024-03-25T18:27:16;8.23;;;1.33;;
52434;SDS011;38354;52.892;6.148;2024-03-25T18:29:42;8.13;;;1.92;;
52434;SDS011;38354;52.892;6.148;2024-03-25T18:32:07;6.18;;;1.83;;
52434;SDS011;38354;52.892;6.148;2024-03-25T18:34:33;4.97;;;1.92;;
52434;SDS011;38354;52.892;6.148;2024-03-25T18:37:00;7.07;;;1.75;;
52434;SDS011;38354;52.892;6.148;2024-03-25T18:39:26;6.35;;;1.73;;
52434;SDS011;38354;52.892;6.148;2024-03-25T18:41:51;4.78;;;1.75;;